LIML

Linate Airport

Milan, Italy
TAF LIML 230500Z 2306/2406 VRB05KT CAVOK
Issued Valid From Valid To
Apr-23 @ 05:00 UTC
(4 hours ago)
Apr-23 @ 06:00 UTC
(3 hours ago)
Apr-24 @ 06:00 UTC
(in 21 hours)
Apr-23 @ 06:00 to Apr-24 @ 06:00
TAF LIML 230500Z 2306/2406 VRB05KT CAVOK
Wind Visibility Clouds Conditions
Variable at 5 knots 10,000+ meters
  • No significant clouds
TAF LIML 230500Z 2306/2406 VRB05KT CAVOK
Issued Apr-23 @ 05:00 UTC
(4 hours ago)
Valid From Apr-23 @ 06:00 UTC
(3 hours ago)
Valid To Apr-24 @ 06:00 UTC
(in 21 hours)
Apr-23 @ 06:00 - Apr-24 @ 06:00
Wind Visibility
Variable at 5 knots 10,000+ meters
Clouds
  • No significant clouds
Conditions